< Cyclone 199504 1995 Season Cyclone 199506 >
Cyclone 199505 (CHLOE)
General InformationDetailed Track InformationTrack Information on Google MapsList of All Images || ResourceGoogle EarthGE AnimationAtom FeedGeoJSON
Detalied Best Track Wind (Time Zone = UTC)
Year Month Day Hour Lat. Long. Wind (kt) Gust (kt) Direc. of Major Storm Axis Radius of Major Storm Axis (nm) Radius of Minor Storm Axis (nm) Direc. of Major Gale Axis Radius of Major Gale Axis (nm) Radius of Minor Gale Axis (nm) Image
1995 4 3 00 -9.0 128.1 19 -1 symmetric - - symmetric - - Image
1995 4 3 12 -9.1 126.1 19 -1 symmetric - - symmetric - - Image
1995 4 4 00 -9.4 123.7 19 -1 symmetric - - symmetric - - Image
1995 4 4 06 -9.6 123.3 19 -1 symmetric - - symmetric - - Image
1995 4 4 12 -9.8 122.9 27 -1 symmetric - - symmetric - - Image
1995 4 4 18 -10.0 122.4 27 -1 symmetric - - symmetric - - Image
1995 4 5 00 -10.1 122.0 35 -1 symmetric - - symmetric - - Image
1995 4 5 03 -10.2 121.6 41 -1 symmetric - - symmetric - - Image
1995 4 5 06 -10.3 121.2 47 -1 symmetric - - symmetric - - Image
1995 4 5 09 -10.4 120.9 54 -1 symmetric - - symmetric - - Image
1995 4 5 12 -10.5 120.9 60 -1 symmetric - - symmetric - - Image
1995 4 5 15 -10.8 121.1 66 -1 symmetric - - symmetric - - Image
1995 4 5 18 -11.0 121.3 70 -1 symmetric - - symmetric - - Image
1995 4 5 21 -11.3 121.5 76 -1 symmetric - - symmetric - - Image
1995 4 6 00 -11.5 121.7 80 -1 symmetric - - symmetric - - Image
1995 4 6 03 -11.8 121.8 80 -1 symmetric - - symmetric - - Image
1995 4 6 06 -12.1 121.9 80 -1 symmetric - - symmetric - - Image
1995 4 6 09 -12.4 122.1 80 -1 symmetric - - symmetric - - Image
1995 4 6 12 -12.8 122.3 80 -1 symmetric - - symmetric - - Image
1995 4 6 15 -13.2 122.4 89 -1 symmetric - - symmetric - - Image
1995 4 6 18 -13.4 122.7 97 -1 symmetric - - symmetric - - Image
1995 4 6 21 -13.7 123.0 105 -1 symmetric - - symmetric - - Image
1995 4 7 00 -14.0 123.2 107 -1 symmetric - - symmetric - - Image
1995 4 7 03 -14.3 123.3 107 -1 symmetric - - symmetric - - Image
1995 4 7 06 -14.5 123.3 107 -1 symmetric - - symmetric - - Image
1995 4 7 09 -14.7 123.4 107 -1 symmetric - - symmetric - - Image
1995 4 7 12 -14.9 123.6 105 -1 symmetric - - symmetric - - Image
1995 4 7 15 -15.1 123.8 101 -1 symmetric - - symmetric - - Image
1995 4 7 18 -15.4 123.8 97 -1 symmetric - - symmetric - - Image
1995 4 7 21 -15.6 124.0 93 -1 symmetric - - symmetric - - Image
1995 4 8 00 -15.9 124.1 89 -1 symmetric - - symmetric - - Image
1995 4 8 03 -16.2 124.2 80 -1 symmetric - - symmetric - - Image
1995 4 8 06 -16.5 124.2 70 -1 symmetric - - symmetric - - Image
1995 4 8 09 -16.8 124.1 54 -1 symmetric - - symmetric - - Image
1995 4 8 12 -17.0 124.0 41 -1 symmetric - - symmetric - - Image
1995 4 8 15 -17.2 123.8 27 -1 symmetric - - symmetric - - Image
1995 4 8 18 -17.5 123.6 27 -1 symmetric - - symmetric - - Image
< Cyclone 199504 1995 Season Cyclone 199506 >

Help